首页
METAR-TAF:

METAR-TAF

机场 :

图卢兹-布拉尼亚克机场

圖盧茲, 法国

纬度: 43-38N, 经度: 001-22E, 海拔: 152米

当前天气观测

该预报发布于46分钟前的20:30 UTC
风速8节,风向西转西北
温度 17°C
湿度 88%
气压 1009 hPa
能见度10公里或以上
小毛毛雨

METAR: LFBO 062030Z AUTO 29008KT 9999 -DZ BKN022/// BKN035/// BKN041/// ///CB 17/15 Q1009 TEMPO 4000 RA BKN012 OVC030 FEW040CB

时间: 23:16 (21:16 UTC)

预报

该预报发布于4小时和16分钟前的17:00 UTC
预报有效从06日的 18点(UTC)到 07日的 24点(UTC)
风速8节,风向西转西北
能见度10公里或以上
多云层高于4500英尺
短暂存在
从 06日的 18点(UTC)到 06日的 19点(UTC)
散云层高于4000英尺, 塔状积云.
短暂存在
从 06日的 20点(UTC)到 07日的 04点(UTC)
能見度: 4000
多云层高于1200英尺
阴天层高于3000英尺
少量云层高于4000英尺, 积雨云.
几率 40%
从 07日的 02点(UTC)到 07日的 05点(UTC)
多云层高于800英尺
成为
从 07日的 06点(UTC)到 07日的 08点(UTC)
多云层高于4000英尺
短暂存在
从 07日的 11点(UTC)到 07日的 18点(UTC)
散云层高于3000英尺
多云层高于8000英尺
短暂存在
从 07日的 21点(UTC)到 07日的 24点(UTC)
散云层高于2000英尺, 塔状积云.

TAF: LFBO 061700Z 0618/0724 29008KT 9999 BKN045 TEMPO 0618/0619 SCT040TCU TEMPO 0620/0704 4000 RA BKN012 OVC030 FEW040CB PROB40 0702/0705 BKN008 BECMG 0706/0708 BKN040 TEMPO 0711/0718 SCT030 BKN080 TEMPO 0721/0724 SCT020TCU

超过4000个机场的气象观测和天气预报(METAR&TAF报告)。

可查询的气象台以黄色和红色小点在地图上表示。

将鼠标移到小点上方,可查看气象台名称。

然后点击查看天气观测和预报。

如需切换地图:点击带黑十字的绿色按钮放大地图;点击带横线的绿色按钮缩小地图;或者点击绿色箭头查看邻近地区的地图。


METAR-TAF: